Dutch
Home     News     Corporate     Events & Tours     Flight ops     Crew centre      
My transavia virtual    Join us    Last logs    Who is flying    Software    Training    VRTS     
 

view flightdata
view flightplan
view OFP
view flightlog



flightdata:
pilot: Robin Hofmann
flight: TRA5886
from: LGSA (Chania)
to: EHAM (Amsterdam Schiphol)
date: 23-04-2020
departure: 07:30z
arrival: 10:48z
duration: 3:17
aircraft: B738 (PHHXL)
distance: 1370 NM
touchdown: -442 ft/m @ 153 KIAS



flightplan:
-(FPL-TRA5886-IS
-B738/M-SDEEFGHIJRWXY/LB1
-LGSA0732
-N0448F340 SOKRI UJ65 TRL UM601 KFN UM872 LATAN DCT ENOXA DCT AIOSA DCT ZDA DCT ULPIN DCT CRE DCT GEMKA/N0457F360 DCT VEKEN DCT ERKIR DCT ETAGO DCT HAREM UN851 LOHRE Z850 ABILU DCT RKN
-EHAM0313 EHRD
-EET/LAAA0048 LYBA0107 LQSB0116 LDZO0135 LJLA0146 LOVV0149 EDUU0207 EDVV0243 EHAA0254 PBN/B1D1O1 DOF/200423 REG/PHHXL SEL/DQFM CODE/4841A5 OPR/TRA RVR/200 RMK/TCAS)



operational flightplan (OFP):
DISPATCH BRIEFING (TEL:
--------- --------- --------- --------- --------- --------- ---------  
PREDEPARTURE ATC CLEARANCE:
.
.
--------- --------- --------- --------- --------- --------- ---------  
OFP  1    23 APR 20/07:17
                                    OBS  N/A

TRA5886    C/S TRA5788  LGSA/CHQ   EHAM/AMS         CRZ SYS     CI 10
23 APR 20  PH-HXL       2120/2120  0043/0048        GND DIST     1354
B737-800 CFTAB:.....    CTOT:....  STA  0050        AIR DIST     1354
                                                    AVG W/C         0
MAXIMUM    ZFW  62731  LAW  66360  TOW  74975       AVG ISA       M05
ESTIMATED  ZFW  60402  LAW  62962  TOW  71139       F-F FACTOR    0.0
ACTUAL     ZFW  .....  LAW  .....  TOW  .....
--------- --------- --------- --------- --------- --------- ---------
TRIP        8177   0313           .....  .....
CONT         409   0011           .....  .....
ALTN         487   0010  EHRD     .....  .....  ....
FINAL       1122   0030           .....  .....
ADDNL        542   0014           .....  .....
TANKERING                  
PLN TOF    10195   0404
DIFF        ....   ....
PLN TOF     ....   ....  (CORRECTED)   
EXTRA          0   ....                  
TOF        10195   ....                 
TAXI         120   ....                  
BLOCK      10857   ....        
--------- --------- --------- --------- --------- --------- ---------
REASON EXTRA FUEL      MATRIX FUEL:
O ECN-ECONAMICAL     O TMP-TEMPORARILY      O ATC-AIR TRAFFIC CNTRL
O FOB-FUEL ON.BOARD  O MSC-MISCELLANEOUS    O FPC-FLIGHT PLN CORR
O WXR-WEATHER        O TEC-TECHNICAL        ACT.CI/CRZ USED: . . .   

--------- --------- --------- --------- --------- --------- ---------

ZFW ZFW 1000 : PLN TOF   XXXXX/TRIP XXXXX 00 MIN HOLD DEST: 0 EXTRA
ZFW ZFW-1000 : PLN TOF   XXXXX/TRIP XXXXX
--------- --------- --------- --------- --------- --------- ---------
COMMANDERS NAME:                           SIGNATURE:

--------- --------- --------- --------- --------- --------- ---------
FROM:  LGSA ELEV490      TO: EHAM ELEV-11        ALTN: EHRD ELEV -14
ATC C/S     : TRA57TRA5886            AVG ISA : M05
CO-ROUTE    :                        AVG TT  :   
FMC-RES FUEL: 1609                   AVG W/C :    0
CRZ ALT     : FL340                  FL310
CI          : CI 10                  FL200     360/000
                                     FL100

LGSA/29  N0448F340 SOKR1K SOKRI UB1 DDM UM619 YNN UL604 DIMIS DCT
RETRA/N0446F360 DCT BOSNA DCT PETOV DCT GOLVA DCT LAMSI
L604 BIGGE DCT AMSAN T281 NORKU NORK2A EHAM/18R

--------- --------- --------- --------- --------- --------- ---------
.
.
--------- --------- --------- --------- --------- --------- ---------
RVSM ALT CHECK:  FL:...... LEFT: ...... STBY: ...... RIGHT: ......

--------- --------- --------- --------- --------- --------- ---------
DESTINATION ALTERNATE EHRD
--------- --------- --------- --------- --------- --------- ---------

--------- --------- --------- --------- --------- --------- ---------
--------- --------- --------- --------- --------- --------- ---------
ALTERNATE SUMMARY
--------- --------- --------- --------- --------- --------- ---------
      ALTN        DIST   LVL       WC TIME  FUEL VIA
      EHRD/24       27  FL050    0 0010   487 AMS
INFO/EBBR/25L      98  FL140    0 0023  1063 WOODY WODY7A
INFO/EBOS/26      126  FL190    0 0028  1242 WOODY N872 NIK L610
                                           DENUT DENU4A
INFO/EBLG/22R     169  FL250    0 0034  1527 NIK NIK5D
--------- --------- --------- --------- --------- --------- ---------

-(FPL-TRA5886-IS
-B738/M-SDEEFGHIJRWXY/LB1
-LGSA0732
-N0448F340 SOKRI UJ65 TRL UM601 KFN UM872 LATAN DCT ENOXA DCT AIOSA DCT ZDA DCT ULPIN DCT CRE DCT GEMKA/N0457F360 DCT VEKEN DCT ERKIR DCT ETAGO DCT HAREM UN851 LOHRE Z850 ABILU DCT RKN
-EHAM0313 EHRD
-EET/LAAA0048 LYBA0107 LQSB0116 LDZO0135 LJLA0146 LOVV0149 EDUU0207 EDVV0243 EHAA0254 PBN/B1D1O1 DOF/200423 REG/PHHXL SEL/DQFM CODE/4841A5 OPR/TRA RVR/200 RMK/TCAS)

WEATHER BRIEFING - GENERATED 23 APR 2020 07:17 UTC
--------------------------------------------------------------------------------

LGSA EHAM EHRD EBBR EBOS EBLG

--------------------------------------------------------------------------------
ORIGIN: LGSA (CHANIA)
--------------------------------------------------------------------------------
LGSA 230650Z 01007KT 9999 FEW025 14/08 Q1015

LGSA 230500Z 2306/2406 01008KT 9999 FEW015 BKN025 PROB40
      TEMPO 2312/2324 5000 RA FEW018TCU BKN020 BKN070 PROB30
      TEMPO 2314/2322 5000 TSRA FEW018CB BKN020 BKN070


--------------------------------------------------------------------------------
DESTINATION: EHAM (SCHIPHOL)
--------------------------------------------------------------------------------
EHAM 230655Z 09007KT 060V130 CAVOK 13/04 Q1021 NOSIG

EHAM 230438Z 2306/2412 07007KT CAVOK
      BECMG 2311/2314 12007KT
      BECMG 2317/2320 02007KT


--------------------------------------------------------------------------------
ALTERNATE: EHRD (ROTTERDAM)
--------------------------------------------------------------------------------
EHRD 230655Z AUTO 08006KT 040V110 9999 NCD 12/04 Q1021 NOSIG

EHRD 230441Z 2306/2412 07007KT CAVOK
      BECMG 2311/2314 12007KT
      BECMG 2317/2320 02007KT


--------------------------------------------------------------------------------
ALTERNATE: EBBR (BRUSSELS)
--------------------------------------------------------------------------------
EBBR 230650Z 07003KT CAVOK 11/04 Q1020 NOSIG

EBBR 230500Z 2306/2412 08006KT CAVOK=  EBLG 230500Z 2306/2412 12007KT CAVOK


--------------------------------------------------------------------------------
ALTERNATE: EBOS (OSTEND)
--------------------------------------------------------------------------------
EBOS 230650Z 10006KT CAVOK 13/04 Q1020 NOSIG

EBOS 230500Z 2306/2412 08009KT CAVOK
      BECMG 2310/2312 01013KT


--------------------------------------------------------------------------------
ALTERNATE: EBLG (LIÈGE)
--------------------------------------------------------------------------------
EBLG 230650Z 10005KT CAVOK 14/02 Q1020 NOSIG

EBLG 230500Z 2306/2412 12007KT CAVOK=  EDDB 230500Z 2306/2406 08005KT CAVOK
      BECMG 2402/2406 20004KT


NOTAM BRIEFING - GENERATED 23 APR 2020 07:17 UTC
--------------------------------------------------------------------------------

LGSA EHAM EHRD EHRD EBBR EBOS EBLG

--------------------------------------------------------------------------------
GLOBAL TRANSAVIA.COM VIRTUAL NOTAMS
--------------------------------------------------------------------------------
REF:NIL PLEASE CONTACT OPERATIONS IN CASE OF STRUCTURAL FLIGHTPLAN ERRORS ON FLIGHT-OPS@TRANSAVIA-VIRTUAL.COM
VALID:UFN

REF:NIL
PLEASE CHECK ACARS EVERY 10 MINUTES WHEN FLYING WITH SOUND OFF. AN NEW ACARS MESSAGE PRODUCE A SOUND SIGNAL UNTILL ITS READ. FLOWCONTROL DON'T RECEIVE MUCH REACTION ON OUTGOING ACARS MESSAGES ACCORDING FLIGHTSTATUS.
SOURCE: SPL/HV/OCC/
END VALID: UFN

REF:NIL
PLEASE CONTACT FLOWCONTROL IN CASE OF PROBLEMS WITH ROUTINGS
SOURCE: SPL/HV/OCC/
END VALID: UFN

REF:NIL
IN CASE OF ENGINE-OUT FLY V2 OR V2 20 MAX. UNTIL ABOVE MSA.
LEVEL-OFF AT AN ALTITUDE ROUNDED OFF TO THE FIRST 1000 FT OF THE HIGHEST MSA.
E.G: MSA EHAM; 1.7 AND 2.3 LEVEL-OFF 3000 FT. AFTER LANDING MAKE A REP TO OCC ON 131.975
SOURCE:SPL/HV/OCC
END VALID:UFN



flightlog:
Pilot : Robin Hofmann
Flight: TRA5886
From  : LGSA Chania
To    : EHAM Schiphol

[FLIGHTLOG] 1.5.4
23-04-2020 07:26:05z, logging started
23-04-2020 07:30:54z, parking brake released
23-04-2020 07:32:07z, flaps set to 13%
23-04-2020 07:32:10z, flaps set to 25%
23-04-2020 07:32:12z, flaps set to 38%
23-04-2020 07:35:48z, take-off at 162 KIAS
23-04-2020 07:35:48z, pos report: 162 KIAS, 00 523 ft, heading 293, winds 020 @ 05 kts
23-04-2020 07:35:48z, flying OFFLINE
23-04-2020 07:35:48z, position: LGSA - Chania
23-04-2020 07:35:53z, retracted gear at 170 KIAS and 87 ft AGL
23-04-2020 07:36:55z, flaps set to 25%
23-04-2020 07:37:00z, flaps set to 13%
23-04-2020 07:38:41z, flaps set to 0%
23-04-2020 07:41:04z, pos report: 313 KIAS, 12 247 ft, heading 319, winds 284 @ 33 kts
23-04-2020 07:56:06z, pos report: 281 KIAS, 34 040 ft, heading 315, winds 268 @ 57 kts
23-04-2020 08:11:06z, pos report: 280 KIAS, 34 040 ft, heading 292, winds 257 @ 37 kts
23-04-2020 08:26:07z, pos report: 268 KIAS, 36 032 ft, heading 317, winds 264 @ 20 kts
23-04-2020 08:41:08z, pos report: 267 KIAS, 36 029 ft, heading 331, winds 317 @ 05 kts
23-04-2020 08:56:09z, pos report: 268 KIAS, 36 014 ft, heading 328, winds 358 @ 11 kts
23-04-2020 09:11:10z, pos report: 268 KIAS, 36 111 ft, heading 321, winds 014 @ 16 kts
23-04-2020 09:26:12z, pos report: 268 KIAS, 36 152 ft, heading 334, winds 027 @ 18 kts
23-04-2020 09:41:13z, pos report: 268 KIAS, 36 176 ft, heading 319, winds 039 @ 32 kts
23-04-2020 09:56:15z, pos report: 268 KIAS, 36 177 ft, heading 308, winds 039 @ 33 kts
23-04-2020 10:11:18z, pos report: 268 KIAS, 36 204 ft, heading 006, winds 017 @ 23 kts
23-04-2020 10:26:19z, pos report: 302 KIAS, 30 827 ft, heading 315, winds 323 @ 16 kts
23-04-2020 10:39:17z, flaps set to 13%
23-04-2020 10:39:45z, below glideslope
23-04-2020 10:40:52z, flaps set to 25%
23-04-2020 10:40:56z, flaps set to 38%
23-04-2020 10:41:00z, on glideslope
23-04-2020 10:41:21z, pos report: 179 KIAS, 02 768 ft, heading 278, winds 109 @ 09 kts
23-04-2020 10:41:31z, intercepted localizer
23-04-2020 10:42:05z, flaps set to 50%
23-04-2020 10:42:08z, lowered gear at 169 KIAS and 2225 ft AGL
23-04-2020 10:42:59z, flaps set to 75%
23-04-2020 10:43:03z, flaps set to 87%
23-04-2020 10:44:47z, touchdown: -442ft/m at 153 KIAS
23-04-2020 10:44:47z, pos report: 153 KIAS, 00 014 ft, heading 266, winds 078 @ 04 kts
23-04-2020 10:44:47z, flying OFFLINE
23-04-2020 10:44:47z, position: EHAM - Schiphol
23-04-2020 10:45:07z, retracted spoilers
23-04-2020 10:45:13z, flaps set to 75%
23-04-2020 10:45:17z, flaps set to 62%
23-04-2020 10:45:20z, flaps set to 50%
23-04-2020 10:45:24z, flaps set to 38%
23-04-2020 10:45:28z, flaps set to 25%
23-04-2020 10:45:31z, flaps set to 13%
23-04-2020 10:45:38z, flaps set to 0%
23-04-2020 10:48:02z, parking brake set
23-04-2020 10:48:51z, logging ended
23-04-2020 10:48:51z, this flight was flown offline

©2009-2021, transavia virtual. All rights reserved. This website is only meant for simulation purposes.
This website is not owned by transavia, nor is transavia responsible for the content of this website.